Flight Track Log - Related Links

Times and Time Zones

All times are in EDT time to prevent confusion due to time zone crossing. See the GGN7280 flight status page for this flight to view local times or setup timezone preferences in your user account.

Time Position Orientation Groundspeed Altitude Reporting Facility
EDT Latitude Longitude Course Direction KTS MPH feet Rate Location/Type
Tue 09:27:54 AM 43.6667 -79.5833 180° South 70 81 800  Level Toronto Center
Tue 09:28:54 AM 43.6167 -79.5833 180° South 170 196 2,800 2,000 Climbing Toronto Center
Tue 09:29:54 AM 43.5667 -79.5833 180° South 180 207 4,800 1,800 Climbing Toronto Center
Tue 09:30:54 AM 43.5333 -79.5167 125° Southeast 210 242 6,400 1,150 Climbing Toronto Center
Tue 09:31:54 AM 43.5167 -79.4333 105° East 230 265 7,100 800 Climbing Toronto Center
Tue 09:32:54 AM 43.5000 -79.3333 103° East 250 288 8,000 1,000 Climbing Toronto Center
Tue 09:33:54 AM 43.4833 -79.2500 105° East 250 288 9,100 1,150 Climbing Toronto Center
Tue 09:34:54 AM 43.4667 -79.1500 103° East 250 288 10,300 1,000 Climbing Toronto Center
Tue 09:35:54 AM 43.4667 -79.0667 90° East 250 288 11,100 400 Climbing Toronto Center
Tue 09:36:54 AM 43.4500 -78.9667 103° East 270 311 11,100 350 Level Toronto Center
Tue 09:37:54 AM 43.4500 -78.8500 90° East 270 311 11,800 950 Climbing Toronto Center
Tue 09:38:54 AM 43.4333 -78.7667 105° East 260 299 13,000 1,250 Climbing Toronto Center
Tue 09:39:54 AM 43.4167 -78.6667 103° East 260 299 14,300 1,243 Climbing Toronto Center
Tue 09:40:45 AM 43.4186 -78.6056 87° East 257 296 15,300 1,243 Climbing Cleveland Center
Tue 09:41:45 AM 43.4044 -78.5058 101° East 257 296 16,600 1,150 Climbing Cleveland Center
Tue 09:42:45 AM 43.3942 -78.4006 98° East 264 304 17,600 1,100 Climbing Cleveland Center
Tue 09:43:45 AM 43.3836 -78.2925 98° East 276 318 18,800 1,150 Climbing Cleveland Center
Tue 09:44:45 AM 43.3733 -78.1842 97° East 281 323 19,900 1,200 Climbing Cleveland Center
Tue 09:45:45 AM 43.3564 -78.0764 102° East 281 323 21,200 1,300 Climbing Cleveland Center
Tue 09:46:45 AM 43.3436 -77.9769 100° East 276 318 22,500 1,150 Climbing Cleveland Center
Tue 09:47:45 AM 43.3308 -77.8719 99° East 276 318 23,500 950 Climbing Cleveland Center
Tue 09:48:45 AM 43.3178 -77.7642 99° East 276 318 24,400 750 Climbing Cleveland Center
Tue 09:49:45 AM 43.3028 -77.6592 101° East 276 318 25,000 300 Climbing Cleveland Center
Tue 09:50:45 AM 43.2894 -77.5428 99° East 281 323 25,000  Level Cleveland Center
Tue 09:51:45 AM 43.2758 -77.4267 99° East 300 345 25,000  Level Cleveland Center
Tue 09:53:43 AM 43.2417 -77.1867 101° East 313 360 25,000  Level Boston Center
Tue 09:54:43 AM 43.2256 -77.0714 101° East 308 354 25,000  Level Boston Center
Tue 09:55:43 AM 43.2136 -76.9536 98° East 308 354 25,000  Level Boston Center
Tue 09:56:43 AM 43.1972 -76.8356 101° East 308 354 25,000  Level Boston Center
Tue 09:57:43 AM 43.1808 -76.7231 101° East 308 354 25,000  Level Boston Center
Tue 09:58:43 AM 43.1678 -76.6197 100° East 308 354 25,000  Level Boston Center
Tue 09:59:43 AM 43.1531 -76.5075 100° East 303 349 25,000  Level Boston Center
Tue 10:00:44 AM 43.1364 -76.3956 101° East 298 343 25,000  Level Boston Center
Tue 10:01:43 AM 43.1236 -76.2781 98° East 298 343 25,000 -252 Level Boston Center
Tue 10:02:43 AM 43.1064 -76.1658 102° East 298 343 24,500 -700 Descending Boston Center
Tue 10:03:43 AM 43.0892 -76.0539 102° East 298 343 23,600 -1,000 Descending Boston Center
Tue 10:04:43 AM 43.0739 -75.9422 101° East 298 343 22,500 -1,050 Descending Boston Center
Tue 10:05:43 AM 43.0586 -75.8333 101° East 298 343 21,500 -1,200 Descending Boston Center
Tue 10:06:43 AM 43.0431 -75.7217 101° East 298 343 20,100 -1,350 Descending Boston Center
Tue 10:07:43 AM 43.0272 -75.6128 101° East 298 343 18,800 -1,400 Descending Boston Center
Tue 10:08:43 AM 43.0094 -75.5011 102° East 298 343 17,300 -1,250 Descending Boston Center
Tue 10:09:43 AM 42.9958 -75.3897 99° East 298 343 16,300 -1,150 Descending Boston Center
Tue 10:10:43 AM 42.9778 -75.2811 103° East 298 343 15,000 -1,200 Descending Boston Center
Tue 10:11:43 AM 42.9658 -75.1725 99° East 298 343 13,900 -1,200 Descending Boston Center
Tue 10:12:43 AM 42.9725 -75.0650 85° East 293 337 12,600 -1,379 Descending Boston Center
Tue 10:13:10 AM 42.9736 -75.0139 88° East 284 327 11,900 -1,000 Descending Boston Center
Tue 10:13:43 AM 42.9789 -74.9631 82° East 287 330 11,600 -545 Descending Boston Center

Login

Don't have an account? Register now (free) for customized features, flight alerts, and more!